Time;durP1;ratioP1;P1;durP2;ratioP2;P2;SDS_P1;SDS_P2;PMS_P1;PMS_P2;Temp;Humidity;BMP_temperature;BMP_pressure;BME280_temperature;BME280_humidity;BME280_pressure;Samples;Min_cycle;Max_cycle;Signal;HPM_P1;HPM_P2
2022/04/18 00:01:52;;;;;;;17.27;10.27;;;8.50;75.20;;;;;;5048136;28;20041;-52
2022/04/18 00:04:18;;;;;;;17.95;10.43;;;6.10;74.90;;;;;;5048394;28;20087;-51
2022/04/18 00:06:44;;;;;;;14.90;9.50;;;5.50;74.70;;;;;;5048353;28;20609;-52
2022/04/18 00:09:09;;;;;;;18.33;9.40;;;5.40;75.10;;;;;;5048108;28;20049;-51
2022/04/18 00:11:35;;;;;;;15.57;10.32;;;5.40;75.50;;;;;;5048040;28;20045;-51
2022/04/18 00:14:01;;;;;;;17.02;10.45;;;5.30;75.90;;;;;;5046673;28;20044;-48
2022/04/18 00:16:28;;;;;;;17.88;10.32;;;5.30;76.30;;;;;;5047516;28;20045;-51
2022/04/18 00:18:53;;;;;;;17.23;10.93;;;5.30;76.80;;;;;;5047363;28;20358;-49
2022/04/18 00:21:20;;;;;;;17.17;9.77;;;5.20;77.20;;;;;;5047872;28;20045;-52
2022/04/18 00:23:46;;;;;;;16.85;10.23;;;5.20;77.50;;;;;;5048335;28;20033;-47
2022/04/18 00:26:12;;;;;;;19.27;11.68;;;5.20;77.90;;;;;;5048126;28;20763;-51
2022/04/18 00:28:38;;;;;;;17.63;11.05;;;5.20;78.00;;;;;;5047823;28;20116;-51
2022/04/18 00:31:04;;;;;;;20.23;10.75;;;5.10;78.30;;;;;;5048012;28;20045;-51
2022/04/18 00:33:29;;;;;;;16.85;11.27;;;5.00;78.70;;;;;;5047802;28;20045;-52
2022/04/18 00:35:55;;;;;;;19.85;10.82;;;5.00;79.40;;;;;;5048129;28;20147;-51
2022/04/18 00:38:22;;;;;;;16.85;10.82;;;5.00;80.10;;;;;;5046134;28;20126;-49
2022/04/18 00:40:48;;;;;;;16.92;10.32;;;5.00;80.20;;;;;;5048005;28;20067;-52
2022/04/18 00:43:14;;;;;;;21.20;11.50;;;5.00;80.40;;;;;;5047835;28;20482;-52
2022/04/18 00:45:40;;;;;;;17.13;10.63;;;5.00;80.50;;;;;;5047475;28;20053;-49
2022/04/18 00:48:06;;;;;;;15.23;9.57;;;5.00;80.80;;;;;;5047963;28;20033;-51
2022/04/18 00:50:34;;;;;;;15.23;10.15;;;5.00;81.70;;;;;;5047518;28;20051;-51
2022/04/18 00:53:02;;;;;;;16.00;10.23;;;4.90;81.40;;;;;;5046304;28;20045;-50
2022/04/18 00:55:28;;;;;;;20.60;11.43;;;4.80;82.20;;;;;;5047545;28;20105;-51
2022/04/18 00:57:55;;;;;;;21.83;12.00;;;4.70;81.90;;;;;;5047408;28;20032;-49
2022/04/18 01:00:22;;;;;;;18.13;10.85;;;4.60;82.40;;;;;;5047553;28;20372;-52
2022/04/18 01:02:48;;;;;;;15.93;9.32;;;4.60;82.70;;;;;;5047692;28;20133;-50
2022/04/18 01:05:14;;;;;;;18.20;11.15;;;4.50;83.10;;;;;;5047781;28;20048;-50
2022/04/18 01:07:40;;;;;;;19.15;10.77;;;4.50;83.60;;;;;;5047252;28;20422;-49
2022/04/18 01:10:07;;;;;;;18.83;11.30;;;4.50;83.80;;;;;;5046168;28;20095;-51
2022/04/18 01:12:34;;;;;;;17.95;10.63;;;4.40;84.20;;;;;;5047269;28;20053;-53
2022/04/18 01:14:59;;;;;;;21.08;11.82;;;4.30;84.40;;;;;;5047696;28;20091;-51
2022/04/18 01:17:26;;;;;;;17.02;9.48;;;4.30;84.40;;;;;;5045739;28;20049;-48
2022/04/18 01:19:52;;;;;;;19.33;10.30;;;4.40;84.70;;;;;;5047472;28;20130;-50
2022/04/18 01:22:22;;;;;;;21.77;10.32;;;4.40;84.40;;;;;;5047600;28;20574;-50
2022/04/18 01:30:17;;;;;;;18.05;10.02;;;4.30;84.90;;;;;;5049432;28;20059;-50
2022/04/18 01:32:43;;;;;;;18.33;10.73;;;2.10;84.10;;;;;;5051125;28;20045;-51
2022/04/18 01:35:10;;;;;;;15.95;10.07;;;4.10;86.00;;;;;;5051500;28;20048;-51
2022/04/18 01:37:37;;;;;;;16.55;10.27;;;4.10;86.60;;;;;;5050834;28;20052;-51
2022/04/18 01:40:06;;;;;;;18.85;10.48;;;4.00;87.20;;;;;;5049919;28;20140;-50
2022/04/18 01:42:32;;;;;;;17.17;10.32;;;4.00;87.70;;;;;;5049424;28;20073;-52
2022/04/18 01:45:00;;;;;;;19.30;10.40;;;4.00;88.00;;;;;;5051264;28;20076;-52
2022/04/18 01:47:27;;;;;;;20.98;11.02;;;4.00;88.40;;;;;;5051369;28;20041;-53
2022/04/18 01:49:52;;;;;;;16.45;10.77;;;4.00;88.70;;;;;;5049760;28;20053;-49
2022/04/18 01:52:18;;;;;;;22.75;11.25;;;4.00;89.00;;;;;;5051538;28;20040;-50
2022/04/18 01:54:44;;;;;;;15.88;9.95;;;4.00;89.60;;;;;;5051084;28;20621;-53
2022/04/18 01:57:10;;;;;;;16.55;10.13;;;3.90;89.80;;;;;;5050876;28;20045;-52
2022/04/18 01:59:35;;;;;;;16.45;9.70;;;3.90;90.30;;;;;;5050413;28;20063;-51
2022/04/18 02:02:01;;;;;;;18.73;11.00;;;4.00;90.40;;;;;;5050998;28;20041;-49
2022/04/18 02:04:27;;;;;;;15.95;9.15;;;4.00;90.60;;;;;;5051089;28;20519;-51
2022/04/18 02:06:53;;;;;;;17.10;10.00;;;4.00;90.80;;;;;;5049778;28;20463;-51
2022/04/18 02:09:19;;;;;;;15.25;9.70;;;4.00;90.90;;;;;;5050885;28;20048;-50
2022/04/18 02:11:46;;;;;;;21.05;9.95;;;4.00;90.80;;;;;;5050892;28;20149;-52
2022/04/18 02:14:12;;;;;;;18.83;11.60;;;4.00;91.60;;;;;;5050908;28;20045;-51
2022/04/18 02:16:38;;;;;;;18.90;10.52;;;4.10;91.10;;;;;;5049132;28;20068;-52
2022/04/18 02:19:04;;;;;;;15.05;10.00;;;4.10;91.20;;;;;;5050607;28;20037;-51
2022/04/18 02:21:29;;;;;;;17.35;10.30;;;5.00;91.40;;;;;;5050983;28;20047;-48
2022/04/18 02:23:55;;;;;;;20.13;10.98;;;4.20;90.90;;;;;;5050458;28;20045;-51
2022/04/18 02:26:20;;;;;;;18.52;8.93;;;4.20;90.80;;;;;;5050920;28;20041;-50
2022/04/18 02:28:46;;;;;;;21.73;11.07;;;4.20;90.70;;;;;;5050045;28;20048;-49
2022/04/18 02:31:12;;;;;;;16.38;9.35;;;4.70;90.60;;;;;;5050547;28;20479;-51
2022/04/18 02:33:37;;;;;;;16.75;9.27;;;4.30;90.30;;;;;;5049017;28;20467;-52
2022/04/18 02:36:03;;;;;;;16.25;9.13;;;4.40;90.00;;;;;;5050685;28;20055;-50
2022/04/18 02:38:29;;;;;;;17.60;10.95;;;4.40;89.90;;;;;;5046217;28;20087;-52
2022/04/18 02:40:55;;;;;;;16.70;10.02;;;4.40;89.90;;;;;;5050081;28;20103;-49
2022/04/18 02:43:21;;;;;;;16.35;9.93;;;4.40;90.10;;;;;;5049783;28;20099;-51
2022/04/18 02:45:47;;;;;;;19.83;10.27;;;4.20;90.00;;;;;;5050145;28;20036;-50
2022/04/18 02:48:13;;;;;;;20.70;10.00;;;4.60;90.00;;;;;;5050550;28;20510;-50
2022/04/18 02:50:39;;;;;;;16.08;9.93;;;4.30;90.20;;;;;;5050324;28;20472;-52
2022/04/18 02:53:08;;;;;;;17.38;9.27;;;4.30;90.10;;;;;;5050552;28;20049;-50
2022/04/18 02:55:33;;;;;;;18.60;10.43;;;4.30;90.10;;;;;;5050462;28;20041;-52
2022/04/18 02:57:59;;;;;;;15.40;9.10;;;4.30;90.30;;;;;;5049957;28;20099;-51
2022/04/18 03:00:25;;;;;;;13.63;9.05;;;4.30;90.10;;;;;;5050235;28;20098;-49
2022/04/18 03:02:51;;;;;;;14.82;9.32;;;5.30;90.30;;;;;;5050004;28;20044;-51
2022/04/18 03:05:16;;;;;;;15.77;10.32;;;4.30;89.80;;;;;;5050168;28;20097;-50
2022/04/18 03:07:42;;;;;;;17.02;8.93;;;4.30;89.50;;;;;;5048582;28;20056;-52
2022/04/18 03:10:08;;;;;;;15.38;9.73;;;4.40;89.30;;;;;;5049790;28;20395;-51
2022/04/18 03:12:34;;;;;;;18.17;9.82;;;4.40;89.00;;;;;;5048322;28;20088;-52
2022/04/18 03:15:00;;;;;;;17.80;10.13;;;4.40;89.20;;;;;;5049648;28;20065;-51
2022/04/18 03:17:26;;;;;;;17.70;10.57;;;4.40;89.50;;;;;;5049520;28;20087;-50
2022/04/18 03:19:55;;;;;;;16.90;10.98;;;4.30;89.60;;;;;;5048988;28;20099;-52
2022/04/18 03:22:21;;;;;;;17.00;9.25;;;4.30;90.00;;;;;;5049543;28;20033;-52
2022/04/18 03:24:47;;;;;;;17.20;9.55;;;4.20;90.10;;;;;;5049272;28;20501;-50
2022/04/18 03:27:12;;;;;;;15.55;9.88;;;4.20;90.10;;;;;;5049035;28;20045;-51
2022/04/18 03:29:38;;;;;;;16.27;9.43;;;4.30;90.10;;;;;;5049179;28;20048;-51
2022/04/18 03:32:05;;;;;;;16.58;9.35;;;4.30;90.00;;;;;;5049044;28;20048;-51
2022/04/18 03:34:31;;;;;;;13.60;8.73;;;4.30;90.10;;;;;;5048934;28;20463;-52
2022/04/18 03:39:50;;;;;;;17.52;8.70;;;4.30;90.00;;;;;;5049317;28;20056;-48
2022/04/18 03:42:18;;;;;;;15.68;8.65;;;3.20;88.90;;;;;;5049231;28;20055;-48
2022/04/18 03:44:46;;;;;;;16.67;8.68;;;4.70;89.30;;;;;;5049049;28;20073;-51
2022/04/18 03:47:15;;;;;;;17.83;9.13;;;4.20;88.50;;;;;;5049036;28;20802;-51
2022/04/18 03:49:42;;;;;;;14.90;8.90;;;4.30;88.40;;;;;;5047508;28;20041;-51
2022/04/18 03:52:08;;;;;;;14.98;8.70;;;4.30;88.20;;;;;;5048645;28;20045;-50
2022/04/18 03:54:34;;;;;;;14.68;9.00;;;4.30;88.10;;;;;;5049043;28;20094;-52
2022/04/18 03:57:01;;;;;;;17.98;8.57;;;4.30;88.20;;;;;;5048611;28;20044;-49
2022/04/18 03:59:27;;;;;;;14.50;8.82;;;4.30;87.80;;;;;;5048511;28;20064;-51
2022/04/18 04:01:53;;;;;;;15.05;8.52;;;4.40;87.50;;;;;;5048403;28;20048;-48
2022/04/18 04:04:19;;;;;;;12.05;8.18;;;5.10;87.90;;;;;;5049342;28;20041;-49
2022/04/18 04:06:44;;;;;;;13.88;8.73;;;4.40;87.50;;;;;;5049017;28;20053;-49
2022/04/18 04:09:10;;;;;;;13.52;8.30;;;4.40;87.40;;;;;;5048786;28;20045;-51
2022/04/18 04:11:36;;;;;;;17.05;8.77;;;5.10;87.90;;;;;;5048573;28;20048;-52
2022/04/18 04:14:02;;;;;;;14.20;7.78;;;4.40;87.30;;;;;;5048245;28;20052;-51
2022/04/18 04:16:29;;;;;;;14.73;8.05;;;4.40;87.20;;;;;;5047214;28;20045;-50
2022/04/18 04:18:55;;;;;;;12.75;7.80;;;4.40;88.60;;;;;;5048252;28;20053;-51
2022/04/18 04:21:21;;;;;;;16.13;8.85;;;4.40;87.00;;;;;;5049068;28;20052;-51
2022/04/18 04:23:46;;;;;;;14.23;8.02;;;4.30;87.10;;;;;;5049435;28;20098;-51
2022/04/18 04:26:12;;;;;;;13.40;7.90;;;4.20;87.20;;;;;;5048465;28;20434;-52
2022/04/18 04:28:38;;;;;;;12.32;8.35;;;4.20;87.40;;;;;;5048566;28;20040;-51
2022/04/18 04:31:04;;;;;;;14.85;8.68;;;4.20;87.60;;;;;;5048131;28;20532;-51
2022/04/18 04:33:31;;;;;;;17.05;8.13;;;4.20;87.60;;;;;;5048562;28;20044;-52
2022/04/18 04:36:00;;;;;;;14.25;9.43;;;4.10;87.70;;;;;;5048114;28;20072;-52
2022/04/18 04:38:26;;;;;;;16.67;8.40;;;4.10;88.20;;;;;;5047959;28;20084;-51
2022/04/18 04:40:53;;;;;;;18.13;9.10;;;4.00;88.20;;;;;;5048009;28;20068;-50
2022/04/18 04:43:19;;;;;;;12.35;8.48;;;4.00;88.90;;;;;;5048232;28;20049;-52
2022/04/18 04:45:45;;;;;;;15.40;9.82;;;4.00;89.20;;;;;;5048071;28;20044;-51
2022/04/18 04:48:11;;;;;;;14.40;8.45;;;4.00;89.60;;;;;;5047316;28;20068;-51
2022/04/18 04:50:39;;;;;;;14.43;8.75;;;4.00;90.00;;;;;;5048106;28;20106;-49
2022/04/18 04:53:05;;;;;;;16.88;9.32;;;3.90;90.00;;;;;;5047795;28;20045;-53
2022/04/18 04:55:31;;;;;;;16.92;9.48;;;4.00;90.30;;;;;;5045783;28;20056;-52
2022/04/18 04:57:57;;;;;;;19.17;11.48;;;4.00;90.30;;;;;;5046834;28;20514;-51
2022/04/18 05:00:24;;;;;;;21.50;11.70;;;4.00;90.40;;;;;;5047661;28;20084;-50
2022/04/18 05:02:50;;;;;;;21.88;11.40;;;4.10;90.40;;;;;;5047668;28;20051;-48
2022/04/18 05:05:15;;;;;;;18.30;11.63;;;4.10;90.40;;;;;;5047195;28;20044;-51
2022/04/18 05:07:41;;;;;;;20.60;10.90;;;4.30;90.30;;;;;;5046214;28;20102;-52
2022/04/18 05:10:07;;;;;;;19.10;11.07;;;4.40;90.50;;;;;;5047468;28;20102;-51
2022/04/18 05:12:33;;;;;;;20.55;11.35;;;4.70;90.10;;;;;;5047487;28;20072;-51
2022/04/18 05:15:05;;;;;;;16.80;9.93;;;5.50;88.50;;;;;;5047298;28;20049;-51
2022/04/18 05:17:31;;;;;;;19.95;10.05;;;7.00;85.40;;;;;;5047363;28;20085;-50
2022/04/18 05:19:57;;;;;;;15.90;10.02;;;8.20;82.10;;;;;;5047310;28;20049;-51
2022/04/18 05:22:23;;;;;;;17.20;9.60;;;9.40;78.50;;;;;;5045969;28;20041;-49
2022/04/18 05:24:49;;;;;;;17.45;9.63;;;10.90;75.70;;;;;;5047683;28;20041;-52
2022/04/18 05:27:16;;;;;;;14.23;8.60;;;10.00;74.40;;;;;;5047034;28;20053;-51
2022/04/18 05:29:44;;;;;;;11.88;7.70;;;11.00;73.30;;;;;;5047009;28;20049;-51
2022/04/18 05:32:11;;;;;;;12.13;7.78;;;12.00;71.00;;;;;;5047158;28;20159;-52
2022/04/18 05:34:37;;;;;;;12.80;9.70;;;13.00;68.70;;;;;;5046095;28;20053;-53
2022/04/18 05:37:04;;;;;;;12.48;8.27;;;14.10;67.00;;;;;;5047012;28;20048;-52
2022/04/18 05:39:30;;;;;;;13.38;7.55;;;14.40;64.10;;;;;;5046964;28;20156;-52
2022/04/18 05:41:58;;;;;;;12.70;8.80;;;15.10;63.30;;;;;;5047248;28;20124;-53
2022/04/18 05:44:25;;;;;;;12.35;7.93;;;15.80;61.10;;;;;;5046977;28;20036;-52
2022/04/18 05:46:51;;;;;;;11.63;8.80;;;16.30;59.70;;;;;;5046784;28;20106;-53
2022/04/18 05:49:17;;;;;;;10.50;7.25;;;16.70;58.50;;;;;;5046331;28;20041;-53
2022/04/18 05:51:42;;;;;;;13.77;7.43;;;17.10;57.40;;;;;;5046229;28;20060;-53
2022/04/18 05:54:09;;;;;;;10.85;6.88;;;17.40;55.80;;;;;;5046317;28;20041;-53
2022/04/18 05:56:34;;;;;;;15.70;8.10;;;17.80;55.10;;;;;;5046595;28;20090;-54
2022/04/18 05:59:00;;;;;;;11.57;7.60;;;18.10;54.10;;;;;;5046548;28;20053;-53
2022/04/18 06:01:28;;;;;;;10.88;7.72;;;18.40;52.70;;;;;;5046902;28;20091;-54
2022/04/18 06:03:55;;;;;;;11.77;7.13;;;18.90;52.30;;;;;;5047324;28;20045;-53
2022/04/18 06:06:21;;;;;;;10.00;6.95;;;19.10;51.50;;;;;;5047026;28;20041;-53
2022/04/18 06:08:47;;;;;;;11.50;7.65;;;19.40;51.20;;;;;;5045650;28;20499;-54
2022/04/18 06:11:13;;;;;;;11.45;7.13;;;19.20;51.10;;;;;;5046894;28;20045;-54
2022/04/18 06:13:39;;;;;;;9.88;6.82;;;19.50;51.20;;;;;;5045009;28;20422;-54
2022/04/18 06:16:06;;;;;;;13.48;7.35;;;20.20;50.00;;;;;;5046619;28;20248;-51
2022/04/18 06:18:33;;;;;;;11.07;7.63;;;21.00;49.30;;;;;;5050010;28;20056;-54
2022/04/18 06:20:59;;;;;;;13.32;7.72;;;21.70;48.30;;;;;;5050302;28;20060;-54
2022/04/18 06:23:24;;;;;;;9.02;7.03;;;22.30;47.70;;;;;;5050090;28;20479;-53
2022/04/18 06:25:50;;;;;;;11.98;8.50;;;23.00;46.80;;;;;;5048965;28;20037;-54
2022/04/18 06:28:18;;;;;;;12.60;7.03;;;23.40;45.80;;;;;;5049525;28;20079;-54
2022/04/18 06:30:44;;;;;;;13.15;6.43;;;23.30;44.00;;;;;;5050120;28;20115;-53
2022/04/18 06:33:10;;;;;;;11.43;7.10;;;23.90;44.20;;;;;;5048402;28;20152;-54
2022/04/18 06:35:36;;;;;;;10.02;7.03;;;24.40;43.80;;;;;;5049932;28;20510;-54
2022/04/18 06:38:02;;;;;;;9.05;6.47;;;24.50;42.50;;;;;;5049892;28;20049;-53
2022/04/18 06:40:28;;;;;;;9.73;6.68;;;24.50;43.00;;;;;;5049825;28;20513;-54
2022/04/18 06:42:53;;;;;;;10.00;6.35;;;24.20;41.80;;;;;;5048698;28;20052;-54
2022/04/18 06:45:19;;;;;;;12.05;7.47;;;23.60;42.60;;;;;;5050137;28;20414;-54
2022/04/18 06:47:45;;;;;;;10.55;7.00;;;23.40;42.90;;;;;;5048721;28;20410;-55
2022/04/18 06:50:12;;;;;;;10.27;6.45;;;23.20;42.70;;;;;;5050304;28;20196;-53
2022/04/18 06:52:46;;;;;;;10.73;7.22;;;22.90;42.20;;;;;;5049442;28;20084;-53
2022/04/18 06:55:12;;;;;;;8.80;6.32;;;23.40;42.00;;;;;;5049841;28;20041;-53
2022/04/18 06:57:38;;;;;;;9.27;6.47;;;24.00;41.70;;;;;;5050049;28;20045;-55
2022/04/18 07:00:05;;;;;;;9.43;6.30;;;24.50;41.40;;;;;;5049617;28;20754;-54
2022/04/18 07:02:31;;;;;;;10.55;6.93;;;24.80;40.80;;;;;;5049675;28;20052;-53
2022/04/18 07:04:57;;;;;;;12.55;7.05;;;25.30;40.70;;;;;;5049571;28;20513;-54
2022/04/18 07:07:22;;;;;;;10.60;6.95;;;25.00;40.60;;;;;;5049538;28;20068;-53
2022/04/18 07:09:48;;;;;;;10.00;6.63;;;24.90;40.20;;;;;;5049458;28;20041;-55
2022/04/18 07:12:14;;;;;;;9.60;6.65;;;23.60;40.50;;;;;;5049215;28;20490;-54
2022/04/18 07:14:39;;;;;;;9.82;6.80;;;22.50;41.60;;;;;;5049692;28;20106;-53
2022/04/18 07:17:06;;;;;;;11.52;7.13;;;21.50;42.10;;;;;;5049693;28;20048;-53
2022/04/18 07:19:33;;;;;;;9.55;6.85;;;20.70;43.00;;;;;;5048870;28;20049;-55
2022/04/18 07:21:59;;;;;;;10.02;6.25;;;20.40;43.60;;;;;;5049454;28;20048;-53
2022/04/18 07:24:25;;;;;;;9.32;6.63;;;20.20;44.30;;;;;;5049088;28;20120;-53
2022/04/18 07:26:51;;;;;;;10.27;6.65;;;19.30;45.10;;;;;;5049237;28;20116;-53
2022/04/18 07:29:17;;;;;;;9.55;6.65;;;18.40;46.20;;;;;;5046809;28;20505;-54
2022/04/18 07:31:43;;;;;;;8.82;6.07;;;17.60;47.00;;;;;;5047899;28;20049;-52
2022/04/18 07:34:09;;;;;;;9.60;6.50;;;17.10;47.90;;;;;;5047510;28;20048;-53
2022/04/18 07:36:35;;;;;;;11.23;6.55;;;16.50;48.60;;;;;;5048670;28;20495;-52
2022/04/18 07:39:01;;;;;;;9.27;6.57;;;16.10;49.60;;;;;;5049110;28;20041;-53
2022/04/18 07:41:28;;;;;;;7.90;5.88;;;16.10;50.30;;;;;;5048817;28;20041;-52
2022/04/18 07:43:56;;;;;;;9.10;5.72;;;15.90;50.70;;;;;;5048847;28;20080;-54
2022/04/18 07:46:21;;;;;;;8.43;5.75;;;16.30;51.20;;;;;;5047307;28;20049;-54
2022/04/18 07:48:50;;;;;;;9.07;5.55;;;16.70;50.80;;;;;;5044918;28;20572;-38
2022/04/18 07:51:34;;;;;;;8.63;5.53;;;17.20;50.00;;;;;;5043892;28;20053;-49
2022/04/18 07:54:01;;;;;;;7.97;5.30;;;17.80;49.40;;;;;;5046929;28;20044;-46
2022/04/18 07:56:27;;;;;;;8.63;4.90;;;17.80;48.70;;;;;;5048203;28;20048;-48
2022/04/18 07:58:53;;;;;;;8.38;5.10;;;17.80;48.60;;;;;;5043908;28;20054;-48
2022/04/18 08:01:20;;;;;;;7.25;5.15;;;17.80;48.50;;;;;;5018997;28;20084;-49
2022/04/18 08:03:47;;;;;;;7.97;4.80;;;18.20;47.90;;;;;;5024714;28;20821;-46
2022/04/18 08:06:12;;;;;;;8.63;5.20;;;19.40;47.40;;;;;;5025485;28;20140;-39
2022/04/18 08:08:39;;;;;;;8.32;5.60;;;21.10;45.60;;;;;;5026540;28;20132;-40
2022/04/18 08:11:04;;;;;;;8.38;5.05;;;22.20;43.10;;;;;;5024820;28;20045;-40
2022/04/18 08:13:31;;;;;;;10.25;5.10;;;23.40;43.40;;;;;;5026210;28;20053;-40
2022/04/18 08:15:57;;;;;;;6.43;4.95;;;24.80;42.20;;;;;;5025982;28;20149;-55
2022/04/18 08:18:23;;;;;;;6.32;4.97;;;25.90;40.90;;;;;;5025642;28;20226;-52
2022/04/18 08:20:49;;;;;;;7.10;4.88;;;26.60;39.70;;;;;;5025451;28;20112;-49
2022/04/18 08:23:15;;;;;;;8.30;5.38;;;27.40;39.30;;;;;;5026314;28;20399;-50
2022/04/18 08:25:47;;;;;;;6.45;4.25;;;28.40;38.70;;;;;;5025680;28;20042;-43
2022/04/18 08:28:18;;;;;;;6.45;5.10;;;29.30;37.70;;;;;;5025949;28;20049;-45
2022/04/18 08:30:44;;;;;;;7.90;5.25;;;29.70;36.30;;;;;;5025748;28;20677;-45
2022/04/18 08:33:09;;;;;;;8.48;4.93;;;30.70;36.40;;;;;;5024793;28;20049;-45
2022/04/18 08:35:35;;;;;;;6.22;4.40;;;31.10;36.20;;;;;;5024003;28;20375;-49
2022/04/18 08:38:01;;;;;;;7.47;4.95;;;31.40;35.10;;;;;;5025513;28;20053;-47
2022/04/18 08:40:27;;;;;;;6.75;4.38;;;31.60;34.30;;;;;;5024933;28;20042;-46
2022/04/18 08:42:56;;;;;;;6.03;4.68;;;31.80;33.70;;;;;;5025688;28;20070;-51
2022/04/18 08:45:25;;;;;;;6.43;4.45;;;32.30;37.10;;;;;;5024277;28;20956;-46
2022/04/18 08:53:26;;;;;;;6.10;4.53;;;33.40;33.10;;;;;;5025084;28;20367;-44
2022/04/18 08:55:53;;;;;;;5.95;4.25;;;33.60;33.10;;;;;;5024421;28;20038;-43
2022/04/18 08:58:20;;;;;;;5.63;4.00;;;33.40;31.60;;;;;;5024327;28;20663;-43
2022/04/18 09:00:46;;;;;;;6.35;4.03;;;33.50;32.10;;;;;;5013511;28;20530;-43
2022/04/18 09:03:12;;;;;;;6.13;3.97;;;33.70;39.00;;;;;;5024343;28;20088;-40
2022/04/18 09:05:38;;;;;;;6.13;3.50;;;34.50;32.20;;;;;;5023998;28;20041;-43
2022/04/18 09:08:09;;;;;;;7.60;4.60;;;35.10;32.20;;;;;;5024676;28;20045;-47
2022/04/18 09:10:35;;;;;;;7.18;4.80;;;35.60;31.00;;;;;;5024545;28;20422;-48
2022/04/18 09:13:10;;;;;;;6.07;4.43;;;36.00;30.60;;;;;;5025125;28;20044;-45
2022/04/18 09:15:40;;;;;;;5.75;4.00;;;36.30;30.30;;;;;;5025610;28;20116;-44
2022/04/18 09:18:07;;;;;;;6.05;4.20;;;36.50;30.10;;;;;;5025059;28;20758;-47
2022/04/18 09:20:42;;;;;;;6.80;4.13;;;36.50;29.90;;;;;;5024312;28;20057;-45
2022/04/18 09:23:43;;;;;;;5.05;3.67;;;36.70;29.80;;;;;;5025146;28;20545;-49
2022/04/18 09:26:09;;;;;;;5.72;4.07;;;37.10;30.40;;;;;;5022921;28;20049;-48
2022/04/18 09:28:42;;;;;;;4.60;4.00;;;37.30;30.20;;;;;;5023243;28;20065;-45
2022/04/18 09:31:12;;;;;;;5.97;3.78;;;37.60;29.70;;;;;;5024345;28;20049;-44
2022/04/18 09:33:38;;;;;;;5.20;3.58;;;37.90;28.70;;;;;;5024542;28;20045;-43
2022/04/18 09:36:07;;;;;;;7.05;4.10;;;37.90;28.90;;;;;;5024670;28;20066;-47
2022/04/18 09:38:39;;;;;;;5.50;4.20;;;37.90;28.70;;;;;;5005891;28;20774;-54
2022/04/18 09:41:05;;;;;;;5.85;4.00;;;37.70;28.80;;;;;;5024090;28;20038;-49
2022/04/18 09:43:44;;;;;;;7.68;3.78;;;37.50;28.70;;;;;;5023576;28;20049;-52
2022/04/18 09:46:10;;;;;;;6.57;3.90;;;37.30;28.10;;;;;;5023532;28;20153;-50
2022/04/18 09:48:36;;;;;;;5.22;3.95;;;37.20;29.00;;;;;;5022816;28;20658;-49
2022/04/18 09:51:08;;;;;;;5.55;3.45;;;37.20;28.80;;;;;;5025630;28;20746;-46
2022/04/18 09:53:34;;;;;;;5.00;3.45;;;37.00;28.90;;;;;;5027743;28;20041;-51
2022/04/18 09:56:00;;;;;;;5.28;3.97;;;36.60;28.70;;;;;;5028550;28;20042;-51
2022/04/18 09:58:26;;;;;;;5.15;3.90;;;36.30;28.60;;;;;;5026537;28;20146;-51
2022/04/18 10:00:52;;;;;;;5.63;3.55;;;35.70;29.20;;;;;;5016976;28;20057;-51
2022/04/18 10:03:19;;;;;;;5.45;3.10;;;35.40;29.50;;;;;;5028119;28;20099;-54
2022/04/18 10:05:48;;;;;;;6.25;3.28;;;35.50;29.30;;;;;;5027360;28;20045;-47
2022/04/18 10:08:14;;;;;;;4.15;3.03;;;35.50;28.60;;;;;;5027777;28;20041;-45
2022/04/18 10:10:40;;;;;;;5.05;3.80;;;35.70;28.70;;;;;;5026942;28;20134;-44
2022/04/18 10:13:07;;;;;;;5.32;3.60;;;35.40;28.60;;;;;;5027495;28;20069;-42
2022/04/18 10:15:35;;;;;;;4.85;3.75;;;35.00;28.60;;;;;;5026393;28;20064;-42
2022/04/18 10:18:06;;;;;;;6.47;4.18;;;34.80;29.30;;;;;;5026859;28;20046;-44
2022/04/18 10:20:35;;;;;;;5.38;4.00;;;34.40;28.90;;;;;;5026637;28;20080;-49
2022/04/18 10:23:30;;;;;;;5.32;3.05;;;33.90;29.20;;;;;;5026648;28;20400;-41
2022/04/18 10:26:37;;;;;;;4.88;3.22;;;34.00;29.90;;;;;;5024925;28;20060;-44
2022/04/18 10:29:27;;;;;;;4.28;3.08;;;34.30;30.00;;;;;;5026800;28;20057;-42
2022/04/18 10:31:53;;;;;;;4.20;3.50;;;34.30;30.00;;;;;;5026458;28;20045;-46
2022/04/18 10:34:23;;;;;;;5.38;3.58;;;34.30;29.50;;;;;;5027210;28;20145;-52
2022/04/18 10:36:57;;;;;;;5.00;2.85;;;34.30;28.20;;;;;;5026963;28;20052;-41
2022/04/18 10:39:37;;;;;;;5.75;2.95;;;34.60;29.70;;;;;;5026495;28;20057;-42
2022/04/18 10:42:43;;;;;;;4.53;3.00;;;34.40;29.20;;;;;;5027179;28;20111;-51
2022/04/18 10:45:19;;;;;;;4.68;3.17;;;34.20;28.20;;;;;;5025311;28;20064;-51
2022/04/18 10:48:09;;;;;;;4.68;2.03;;;32.90;27.90;;;;;;4989618;28;20835;-53
2022/04/18 10:50:37;;;;;;;5.38;2.50;;;31.00;27.80;;;;;;5024878;28;20060;-52
2022/04/18 10:53:08;;;;;;;6.68;3.38;;;28.70;27.80;;;;;;5027039;28;20858;-53
2022/04/18 10:55:38;;;;;;;5.15;3.30;;;27.80;32.00;;;;;;5028748;28;20120;-52
2022/04/18 10:58:17;;;;;;;4.65;3.10;;;26.50;30.00;;;;;;5029767;28;20041;-53
2022/04/18 11:00:46;;;;;;;5.10;4.20;;;25.20;32.00;;;;;;5030109;28;20089;-53
2022/04/18 11:03:12;;;;;;;4.95;3.03;;;24.20;32.20;;;;;;5028189;28;20045;-51
2022/04/18 11:05:38;;;;;;;5.03;2.83;;;23.30;33.40;;;;;;5028616;28;20037;-48
2022/04/18 11:08:24;;;;;;;4.20;2.95;;;22.70;34.30;;;;;;5028924;28;20083;-49
2022/04/18 11:10:50;;;;;;;4.32;2.67;;;22.10;36.40;;;;;;5028546;28;20132;-41
2022/04/18 11:13:15;;;;;;;6.93;3.35;;;21.60;35.50;;;;;;5029074;28;20037;-42
2022/04/18 11:15:50;;;;;;;4.68;3.17;;;21.30;35.20;;;;;;5029003;28;20045;-42
2022/04/18 11:18:28;;;;;;;7.45;3.25;;;21.00;36.80;;;;;;5028577;28;20091;-43
2022/04/18 11:20:54;;;;;;;6.15;3.40;;;20.70;38.10;;;;;;5028474;28;20056;-45
2022/04/18 11:23:27;;;;;;;5.00;3.17;;;20.50;37.70;;;;;;5026391;28;20049;-43
2022/04/18 11:25:58;;;;;;;4.90;2.63;;;20.10;37.70;;;;;;5027933;28;20080;-44
2022/04/18 11:28:32;;;;;;;6.10;2.90;;;19.90;39.80;;;;;;5028284;28;20052;-45
2022/04/18 11:30:58;;;;;;;6.78;3.88;;;19.70;40.70;;;;;;5028613;28;20045;-43
2022/04/18 11:33:23;;;;;;;5.55;3.13;;;19.70;39.10;;;;;;5028421;28;20613;-43
2022/04/18 11:35:50;;;;;;;5.70;3.13;;;19.60;38.30;;;;;;5028138;28;20052;-41
2022/04/18 11:38:15;;;;;;;5.05;3.10;;;19.40;38.90;;;;;;5028784;28;20694;-41
2022/04/18 11:40:42;;;;;;;7.15;3.70;;;19.70;39.80;;;;;;5028266;28;20124;-47
2022/04/18 11:43:12;;;;;;;6.22;3.90;;;19.20;40.10;;;;;;5028789;28;20148;-42
2022/04/18 11:45:38;;;;;;;5.43;3.33;;;19.10;40.70;;;;;;5029062;28;20038;-53
2022/04/18 11:48:04;;;;;;;5.28;3.53;;;19.10;40.90;;;;;;5030531;28;20103;-52
2022/04/18 11:50:32;;;;;;;4.20;2.80;;;19.10;40.00;;;;;;5009118;28;20060;-55
2022/04/18 11:53:06;;;;;;;6.53;2.83;;;19.00;40.10;;;;;;5027014;28;20084;-54
2022/04/18 11:55:44;;;;;;;5.80;3.08;;;19.00;40.00;;;;;;5026849;28;20056;-51
2022/04/18 11:58:10;;;;;;;3.83;2.53;;;18.90;40.30;;;;;;5016043;28;20061;-51
2022/04/18 12:08:50;;;;;;;8.75;2.88;;;18.80;40.10;;;;;;5049108;28;20051;-49
2022/04/18 12:11:16;;;;;;;6.07;3.03;;;18.80;40.20;;;;;;5049178;28;20459;-51
2022/04/18 12:13:43;;;;;;;5.35;3.10;;;18.80;40.70;;;;;;5047289;28;20049;-50
2022/04/18 12:16:10;;;;;;;5.50;2.90;;;18.80;40.10;;;;;;5048305;28;20095;-51
2022/04/18 12:18:35;;;;;;;8.52;3.33;;;18.80;40.50;;;;;;5048947;28;20040;-48
2022/04/18 12:21:01;;;;;;;6.90;3.03;;;18.80;41.50;;;;;;5048243;28;20055;-50
2022/04/18 12:23:27;;;;;;;6.30;3.17;;;18.80;39.90;;;;;;5048715;28;20037;-51
2022/04/18 12:25:55;;;;;;;4.55;2.60;;;18.70;39.20;;;;;;5048090;28;20155;-51
2022/04/18 12:28:26;;;;;;;4.70;2.47;;;18.60;40.00;;;;;;5048474;28;20036;-51
2022/04/18 12:30:53;;;;;;;4.90;3.00;;;18.60;42.00;;;;;;5048017;28;20099;-50
2022/04/18 12:33:22;;;;;;;4.05;2.55;;;18.60;41.50;;;;;;5048530;28;20128;-51
2022/04/18 12:35:56;;;;;;;5.90;3.78;;;18.60;41.80;;;;;;5048205;28;20426;-49
2022/04/18 12:38:31;;;;;;;4.72;3.33;;;18.60;40.90;;;;;;5048213;28;20047;-48
2022/04/18 12:40:58;;;;;;;4.53;2.92;;;18.50;40.90;;;;;;5048090;28;20047;-48
2022/04/18 12:43:28;;;;;;;11.25;3.28;;;18.40;40.20;;;;;;5048655;28;20044;-51
2022/04/18 12:46:00;;;;;;;6.68;3.05;;;18.40;41.10;;;;;;5048158;28;20060;-50
2022/04/18 12:48:31;;;;;;;7.90;2.90;;;18.40;40.40;;;;;;5048502;28;20364;-50
2022/04/18 12:51:00;;;;;;;4.97;3.33;;;18.40;40.80;;;;;;5048401;28;20036;-51
2022/04/18 12:53:50;;;;;;;3.97;2.38;;;18.40;40.00;;;;;;5048565;28;20418;-49
2022/04/18 12:56:26;;;;;;;6.22;3.03;;;18.30;41.10;;;;;;5048146;28;20052;-49
2022/04/18 12:58:52;;;;;;;3.53;2.40;;;18.40;40.50;;;;;;5048076;28;20381;-51
2022/04/18 13:01:26;;;;;;;4.63;3.22;;;18.40;41.80;;;;;;5047839;28;20052;-49
2022/04/18 13:03:54;;;;;;;4.82;2.88;;;18.40;41.40;;;;;;5048319;28;20098;-51
2022/04/18 13:06:23;;;;;;;6.03;2.47;;;18.40;40.80;;;;;;5047941;28;20037;-48
2022/04/18 13:08:50;;;;;;;4.15;3.10;;;18.40;39.70;;;;;;5048227;28;20089;-49